Time;durP1;ratioP1;P1;durP2;ratioP2;P2;SDS_P1;SDS_P2;PMS_P1;PMS_P2;Temp;Humidity;BMP_temperature;BMP_pressure;BME280_temperature;BME280_humidity;BME280_pressure;Samples;Min_cycle;Max_cycle;Signal;HPM_P1;HPM_P2
2022/08/21 11:09:38;;;;;;;4.70;3.60;;;;;;;22.74;52.68;98829.81;5058975;28;20410;-78
2022/08/21 11:12:35;;;;;;;7.13;3.88;;;;;;;23.33;50.43;98830.59;5060694;28;20515;-77
2022/08/21 11:15:11;;;;;;;12.45;3.72;;;;;;;23.81;49.15;98827.28;5038896;28;20033;-77
2022/08/21 11:17:49;;;;;;;8.65;4.20;;;;;;;24.31;47.93;98824.41;5036452;28;20025;-77
2022/08/21 11:20:36;;;;;;;9.77;3.92;;;;;;;24.28;46.97;98811.44;5034756;28;20021;-76
2022/08/21 11:23:14;;;;;;;5.80;2.42;;;;;;;24.53;45.56;98823.94;5042257;28;20078;-76
2022/08/21 11:25:45;;;;;;;6.88;3.00;;;;;;;24.48;45.15;98822.28;5036123;28;20049;-76
2022/08/21 11:28:17;;;;;;;8.10;3.58;;;;;;;24.35;46.23;98817.13;5039226;28;20025;-76
2022/08/21 11:31:12;;;;;;;6.30;3.47;;;;;;;24.43;46.98;98819.75;5041158;28;20044;-76
2022/08/21 11:34:12;;;;;;;5.35;3.20;;;;;;;24.43;46.93;98810.78;5032974;28;20033;-76
2022/08/21 11:36:49;;;;;;;5.68;3.10;;;;;;;24.62;46.69;98815.69;5042211;28;20036;-77
2022/08/21 11:39:21;;;;;;;7.22;3.25;;;;;;;24.80;46.82;98798.75;5044505;28;20024;-76
2022/08/21 11:42:15;;;;;;;7.75;3.40;;;;;;;25.20;45.70;98813.25;5042027;28;20401;-76
2022/08/21 11:45:02;;;;;;;11.27;3.33;;;;;;;25.26;44.77;98813.81;5036915;28;20041;-75
2022/08/21 11:47:52;;;;;;;6.20;2.65;;;;;;;25.48;44.82;98804.31;5048114;28;20120;-76
2022/08/21 11:50:23;;;;;;;6.10;2.33;;;;;;;25.24;44.92;98805.16;5038027;28;20230;-76
2022/08/21 11:53:19;;;;;;;7.72;2.97;;;;;;;25.36;44.67;98809.81;5040718;28;20037;-76
2022/08/21 11:56:12;;;;;;;4.97;2.72;;;;;;;25.44;44.51;98795.22;5041788;28;20068;-77
2022/08/21 11:58:41;;;;;;;12.20;3.78;;;;;;;25.88;44.21;98805.84;5031762;28;20024;-79
2022/08/21 12:01:19;;;;;;;7.47;3.00;;;;;;;25.78;42.92;98781.75;5041255;28;20495;-77
2022/08/21 12:04:34;;;;;;;7.60;2.92;;;;;;;25.91;42.04;98802.41;5039744;28;20482;-77
2022/08/21 12:41:55;;;;;;;6.70;2.28;;;;;;;25.62;42.85;98782.84;5101474;27;20402;-80
2022/08/21 12:44:27;;;;;;;2.50;2.15;;;;;;;26.03;42.14;98760.53;5080959;28;20028;-80
2022/08/21 12:47:01;;;;;;;6.72;2.78;;;;;;;26.20;42.07;98771.16;5081524;28;20045;-80
2022/08/21 12:49:41;;;;;;;5.47;2.97;;;;;;;26.37;41.93;98773.53;5069601;28;20116;-80
2022/08/21 12:52:19;;;;;;;9.80;2.45;;;;;;;26.85;40.96;98755.91;5082826;28;20581;-80
2022/08/21 12:54:45;;;;;;;3.53;2.30;;;;;;;27.14;40.83;98776.50;5061322;28;20562;-80
2022/08/21 12:57:22;;;;;;;6.50;2.65;;;;;;;26.72;40.97;98773.56;5068029;28;20115;-81
2022/08/21 13:00:03;;;;;;;4.97;2.63;;;;;;;26.90;40.82;98749.34;5092210;28;20102;-80
2022/08/21 13:02:39;;;;;;;5.05;2.40;;;;;;;26.71;41.45;98758.31;5061241;28;20032;-80
2022/08/21 13:05:09;;;;;;;7.68;2.88;;;;;;;27.08;41.06;98751.34;5057593;28;20433;-80
2022/08/21 13:07:36;;;;;;;6.03;2.38;;;;;;;27.13;40.90;98767.47;5083006;28;20054;-80
2022/08/21 13:10:12;;;;;;;6.07;2.60;;;;;;;27.04;40.62;98761.41;5063235;28;20372;-80
2022/08/21 13:12:38;;;;;;;4.60;2.38;;;;;;;27.27;40.40;98756.03;5063678;28;20165;-81
2022/08/21 13:15:05;;;;;;;3.75;2.92;;;;;;;27.50;40.07;98756.91;5064302;28;20123;-81
2022/08/21 13:17:36;;;;;;;3.17;2.10;;;;;;;28.01;40.23;98754.78;5079639;28;20063;-81
2022/08/21 13:20:09;;;;;;;4.68;2.20;;;;;;;27.91;39.76;98758.09;5068188;28;20032;-81
2022/08/21 13:22:42;;;;;;;4.50;2.55;;;;;;;27.51;41.11;98763.19;5100766;28;20072;-80
2022/08/21 13:25:16;;;;;;;5.05;2.70;;;;;;;27.46;40.88;98750.56;5079716;28;20032;-81
2022/08/21 13:27:47;;;;;;;4.40;2.60;;;;;;;27.99;40.18;98748.84;5079995;28;20467;-81
2022/08/21 13:30:21;;;;;;;11.82;3.20;;;;;;;27.79;41.34;98750.03;5091910;28;20040;-81
2022/08/21 13:32:51;;;;;;;7.72;2.40;;;;;;;28.07;40.01;98756.84;5085923;28;20115;-81
2022/08/21 13:35:19;;;;;;;8.55;2.88;;;;;;;27.73;40.89;98760.50;5086041;28;20032;-81
2022/08/21 13:37:47;;;;;;;4.20;2.33;;;;;;;28.28;38.65;98747.38;5068324;28;20117;-81
2022/08/21 13:40:35;;;;;;;6.65;2.40;;;;;;;28.36;38.68;98749.88;5083040;28;20024;-81
2022/08/21 13:43:01;;;;;;;6.30;2.47;;;;;;;28.70;38.19;98750.84;5080386;28;20044;-81
2022/08/21 13:45:32;;;;;;;3.63;2.28;;;;;;;28.34;38.90;98740.41;5080403;28;20556;-81
2022/08/21 13:48:00;;;;;;;5.57;2.92;;;;;;;28.86;39.00;98740.47;5079649;28;20052;-81
2022/08/21 13:50:26;;;;;;;2.45;2.10;;;;;;;28.28;37.76;98725.44;5060311;28;20040;-82
2022/08/21 13:52:56;;;;;;;3.80;2.40;;;;;;;28.80;38.72;98734.50;5068344;28;20586;-82
2022/08/21 13:55:24;;;;;;;5.25;2.65;;;;;;;27.84;38.70;98745.03;5069979;28;20024;-81
2022/08/21 13:57:59;;;;;;;5.88;2.20;;;;;;;28.64;38.73;98744.84;5068114;28;20388;-82
2022/08/21 14:00:27;;;;;;;5.85;2.95;;;;;;;28.06;38.88;98741.56;5064423;28;20495;-82
2022/08/21 14:02:59;;;;;;;4.32;2.38;;;;;;;27.51;39.12;98741.25;5064604;28;20032;-82
2022/08/21 14:05:31;;;;;;;3.85;2.28;;;;;;;27.71;39.11;98745.56;5064325;28;20029;-82
2022/08/21 14:08:35;;;;;;;6.43;3.15;;;;;;;27.70;38.67;98743.97;5074545;28;20118;-82
2022/08/21 14:11:04;;;;;;;3.50;2.13;;;;;;;27.33;38.79;98740.88;5063957;28;20503;-82
2022/08/21 14:13:47;;;;;;;4.07;2.35;;;;;;;27.44;39.73;98745.44;5075043;28;20064;-82
2022/08/21 14:16:17;;;;;;;6.93;2.65;;;;;;;27.38;40.54;98738.69;5068344;28;20442;-82
2022/08/21 14:19:07;;;;;;;4.82;2.75;;;;;;;27.72;39.42;98731.47;5068272;28;20029;-82
2022/08/21 14:21:39;;;;;;;5.78;2.67;;;;;;;28.04;39.22;98726.59;5057937;28;20040;-82
2022/08/21 14:24:12;;;;;;;5.88;2.03;;;;;;;28.14;39.28;98726.78;5055719;28;20040;-82
2022/08/21 14:26:54;;;;;;;4.32;2.15;;;;;;;28.10;38.68;98730.63;5073169;28;20071;-82
2022/08/21 14:29:22;;;;;;;2.70;2.40;;;;;;;27.72;38.35;98717.75;5064381;28;20081;-82
2022/08/21 14:31:58;;;;;;;6.30;3.15;;;;;;;27.80;38.74;98721.44;5067696;28;20655;-82
2022/08/21 14:34:27;;;;;;;5.07;3.10;;;;;;;28.11;38.76;98708.28;5057816;28;20039;-82
2022/08/21 14:36:54;;;;;;;4.00;2.08;;;;;;;27.75;38.39;98730.75;5068866;28;20035;-82
2022/08/21 14:39:20;;;;;;;4.55;2.22;;;;;;;27.61;38.54;98725.00;5065862;28;20150;-81
2022/08/21 14:41:48;;;;;;;3.88;2.20;;;;;;;27.89;38.16;98706.31;5072555;28;20487;-82
2022/08/21 14:44:14;;;;;;;3.63;1.95;;;;;;;28.19;38.28;98729.22;5060097;28;20064;-82
2022/08/21 14:46:40;;;;;;;4.15;1.98;;;;;;;28.18;37.94;98710.34;5072813;28;20449;-82
2022/08/21 14:49:05;;;;;;;4.82;2.40;;;;;;;28.52;37.35;98720.31;5059606;28;20021;-82
2022/08/21 14:51:30;;;;;;;4.50;1.77;;;;;;;28.63;37.55;98701.28;5061498;28;20029;-82
2022/08/21 14:53:56;;;;;;;4.85;2.58;;;;;;;29.16;36.41;98722.03;5039561;28;20028;-82
2022/08/21 14:56:22;;;;;;;4.85;2.25;;;;;;;28.84;37.05;98723.56;5065034;28;20033;-82
2022/08/21 14:58:51;;;;;;;2.42;2.10;;;;;;;28.77;36.74;98715.22;5082919;28;20038;-82
2022/08/21 15:01:18;;;;;;;4.75;2.05;;;;;;;28.78;37.24;98705.81;5074038;28;20284;-82
2022/08/21 15:03:45;;;;;;;4.22;2.28;;;;;;;28.90;36.51;98709.13;5071081;28;20032;-82
2022/08/21 15:06:11;;;;;;;3.80;1.95;;;;;;;28.95;37.42;98710.75;5066515;28;20028;-82
2022/08/21 15:08:37;;;;;;;3.28;1.80;;;;;;;28.91;36.97;98712.66;5073283;28;20101;-82
2022/08/21 15:11:04;;;;;;;1.50;1.40;;;;;;;28.83;36.75;98711.75;5070771;28;20033;-82
2022/08/21 15:13:30;;;;;;;4.20;1.58;;;;;;;28.62;37.47;98705.97;5071762;28;20029;-82
2022/08/21 15:15:56;;;;;;;4.85;2.05;;;;;;;28.55;37.30;98694.09;5068519;28;20179;-82
2022/08/21 15:18:24;;;;;;;3.35;1.77;;;;;;;28.45;37.26;98716.66;5055546;28;20111;-82
2022/08/21 15:20:50;;;;;;;6.65;3.28;;;;;;;28.23;37.72;98715.53;5069373;28;20491;-82
2022/08/21 15:23:16;;;;;;;2.55;1.58;;;;;;;28.23;37.99;98714.75;5073334;28;20060;-82
2022/08/21 15:25:44;;;;;;;3.58;1.77;;;;;;;28.37;37.92;98714.97;5066205;28;20493;-82
2022/08/21 15:28:10;;;;;;;3.20;2.15;;;;;;;28.01;38.47;98697.13;5066041;28;20032;-83
2022/08/21 15:30:38;;;;;;;75.10;9.85;;;;;;;27.98;38.18;98693.16;5063585;28;20033;-81
2022/08/21 15:33:04;;;;;;;15.77;2.58;;;;;;;28.18;38.00;98719.38;5068215;28;20298;-81
2022/08/21 15:35:30;;;;;;;22.77;4.13;;;;;;;28.97;37.30;98713.91;5062358;28;20040;-82
2022/08/21 15:37:56;;;;;;;4.75;2.08;;;;;;;28.27;36.68;98712.84;5065806;28;20428;-82
2022/08/21 15:40:22;;;;;;;10.32;2.15;;;;;;;29.01;37.16;98706.50;5063753;28;20344;-82
2022/08/21 15:42:48;;;;;;;6.03;2.38;;;;;;;28.76;37.60;98719.94;5065050;28;20036;-82
2022/08/21 15:45:14;;;;;;;9.95;1.85;;;;;;;29.26;36.74;98693.09;5047383;28;20393;-82
2022/08/21 15:47:43;;;;;;;4.40;1.85;;;;;;;28.45;36.36;98686.47;5060464;28;20041;-82
2022/08/21 15:50:10;;;;;;;2.72;1.65;;;;;;;28.67;37.05;98688.38;5062350;28;20135;-82
2022/08/21 15:52:36;;;;;;;3.17;1.92;;;;;;;28.18;37.85;98718.59;5042108;28;20050;-81
2022/08/21 15:55:03;;;;;;;5.55;1.88;;;;;;;29.16;37.47;98713.00;5057576;28;20106;-82
2022/08/21 15:57:29;;;;;;;3.10;1.80;;;;;;;28.36;37.28;98713.38;5051645;28;20040;-82
2022/08/21 15:59:58;;;;;;;4.53;2.55;;;;;;;28.64;38.07;98705.59;5062520;28;20024;-82
2022/08/21 16:02:30;;;;;;;3.05;1.42;;;;;;;28.36;38.01;98716.13;5062074;28;20029;-83
2022/08/21 16:04:57;;;;;;;4.63;2.50;;;;;;;28.04;37.54;98710.94;5073627;28;20039;-82
2022/08/21 16:07:22;;;;;;;2.70;1.83;;;;;;;27.05;38.51;98690.97;5075995;28;20484;-82
2022/08/21 16:09:48;;;;;;;4.28;2.38;;;;;;;28.09;38.43;98702.38;5087098;28;20031;-82
2022/08/21 16:12:24;;;;;;;2.95;2.50;;;;;;;27.95;37.88;98710.34;5062197;28;20733;-82
2022/08/21 16:14:51;;;;;;;4.05;1.83;;;;;;;27.67;38.48;98722.78;5043492;28;20066;-81
2022/08/21 16:17:16;;;;;;;6.18;2.03;;;;;;;26.80;39.74;98722.53;5061006;28;20137;-82
2022/08/21 16:19:42;;;;;;;4.88;1.85;;;;;;;27.41;39.03;98704.28;5064564;28;20487;-82
2022/08/21 16:22:09;;;;;;;2.60;1.88;;;;;;;28.58;37.95;98712.59;5054790;28;20408;-82
2022/08/21 16:24:35;;;;;;;2.75;1.73;;;;;;;28.77;37.79;98720.69;5078878;28;20033;-82
2022/08/21 16:27:01;;;;;;;4.13;1.88;;;;;;;27.88;38.22;98699.25;5044447;28;20028;-82
2022/08/21 16:29:32;;;;;;;1.88;1.42;;;;;;;27.28;38.22;98722.00;5043076;28;20120;-82
2022/08/21 16:31:57;;;;;;;1.95;1.45;;;;;;;28.15;38.64;98717.38;5057161;28;20075;-82
2022/08/21 16:34:24;;;;;;;3.92;1.70;;;;;;;28.15;37.61;98695.41;5058953;28;20127;-82
2022/08/21 16:36:50;;;;;;;2.47;1.40;;;;;;;27.88;38.30;98696.50;5061228;28;20155;-82
2022/08/21 16:39:15;;;;;;;2.80;1.40;;;;;;;27.85;38.04;98715.66;5045127;28;20158;-82
2022/08/21 16:41:41;;;;;;;2.38;1.70;;;;;;;27.88;38.56;98691.03;5030306;28;20132;-82
2022/08/21 16:44:06;;;;;;;2.90;2.00;;;;;;;28.22;38.43;98704.94;5059277;28;20462;-82
2022/08/21 16:46:37;;;;;;;2.83;1.70;;;;;;;28.16;38.36;98715.41;5044923;28;20090;-82
2022/08/21 16:49:03;;;;;;;3.30;1.98;;;;;;;28.02;38.39;98694.03;5059993;28;20096;-82
2022/08/21 16:51:30;;;;;;;3.53;2.00;;;;;;;28.06;38.45;98696.84;5066663;28;20111;-82
2022/08/21 16:53:56;;;;;;;1.63;1.48;;;;;;;27.68;38.80;98697.72;5066663;28;20285;-82
2022/08/21 16:56:22;;;;;;;2.72;1.85;;;;;;;27.67;39.00;98696.16;5060459;28;20070;-82
2022/08/21 16:58:48;;;;;;;4.95;2.10;;;;;;;27.83;38.79;98709.72;5044237;28;20035;-82
2022/08/21 17:01:18;;;;;;;3.85;1.50;;;;;;;27.50;38.94;98701.31;5064554;28;20025;-82
2022/08/21 17:03:46;;;;;;;2.17;1.60;;;;;;;27.35;39.17;98692.78;5064486;28;20056;-82
2022/08/21 17:06:13;;;;;;;3.60;1.50;;;;;;;26.92;39.80;98700.47;5078779;28;20033;-82
2022/08/21 17:08:38;;;;;;;5.85;2.08;;;;;;;26.82;39.97;98707.34;5065474;28;20376;-82
2022/08/21 17:11:07;;;;;;;2.60;1.52;;;;;;;26.44;40.74;98691.59;5067546;28;20032;-82
2022/08/21 17:13:33;;;;;;;3.50;1.60;;;;;;;26.92;39.98;98698.53;5062664;28;20491;-81
2022/08/21 17:15:58;;;;;;;1.90;1.52;;;;;;;26.81;40.58;98694.78;5062402;28;20050;-82
2022/08/21 17:18:25;;;;;;;5.97;1.98;;;;;;;26.85;40.35;98700.31;5046220;28;20122;-82
2022/08/21 17:20:51;;;;;;;3.50;1.70;;;;;;;26.63;40.61;98697.09;5045642;28;20067;-82
2022/08/21 17:23:19;;;;;;;2.22;1.67;;;;;;;26.31;40.85;98701.06;5047155;28;20083;-82
2022/08/21 17:25:48;;;;;;;3.47;2.00;;;;;;;26.06;41.57;98702.34;5042179;28;20404;-82
2022/08/21 17:28:24;;;;;;;2.60;1.92;;;;;;;26.01;41.24;98678.00;5045941;28;20082;-82
2022/08/21 17:30:51;;;;;;;3.40;2.05;;;;;;;26.21;41.30;98707.03;5064973;28;20089;-82
2022/08/21 17:33:18;;;;;;;2.40;1.40;;;;;;;26.05;41.74;98692.56;5048866;28;20123;-82
2022/08/21 17:35:44;;;;;;;2.47;1.52;;;;;;;25.88;41.93;98673.78;5034775;28;20040;-82
2022/08/21 17:38:10;;;;;;;2.30;1.60;;;;;;;25.91;42.21;98708.63;5053288;28;20036;-82
2022/08/21 17:40:36;;;;;;;3.58;1.85;;;;;;;25.82;42.11;98684.19;5066980;28;20021;-82
2022/08/21 17:43:02;;;;;;;2.42;1.70;;;;;;;25.67;42.11;98681.44;5050924;28;20025;-82
2022/08/21 17:45:28;;;;;;;5.57;2.00;;;;;;;25.68;42.28;98715.84;5065735;28;20472;-82
2022/08/21 17:47:54;;;;;;;2.53;1.73;;;;;;;25.48;43.04;98714.91;5061361;28;20167;-82
2022/08/21 17:50:20;;;;;;;2.33;1.70;;;;;;;25.17;43.56;98691.00;5061030;28;20504;-82
2022/08/21 17:52:46;;;;;;;3.28;2.05;;;;;;;25.38;42.88;98706.41;5061177;28;20028;-82
2022/08/21 17:55:15;;;;;;;4.55;1.98;;;;;;;25.35;43.23;98715.28;5065719;28;20039;-82
2022/08/21 17:57:42;;;;;;;1.95;1.80;;;;;;;25.07;44.04;98712.56;5062185;28;20028;-82
2022/08/21 18:00:10;;;;;;;2.60;2.08;;;;;;;25.18;43.71;98719.13;5063788;28;20033;-82
2022/08/21 18:02:37;;;;;;;3.63;1.92;;;;;;;25.04;43.52;98694.13;5072837;28;20052;-83
2022/08/21 18:05:05;;;;;;;4.05;2.67;;;;;;;25.11;43.71;98705.25;5053457;28;20032;-82
2022/08/21 18:07:31;;;;;;;6.70;2.10;;;;;;;24.99;43.67;98697.88;5069931;28;20024;-82
2022/08/21 18:09:56;;;;;;;2.83;2.17;;;;;;;25.06;44.09;98725.41;5052600;28;20028;-82
2022/08/21 18:12:22;;;;;;;3.92;1.98;;;;;;;24.92;44.25;98722.25;5070760;28;20484;-82
2022/08/21 18:14:48;;;;;;;2.03;1.80;;;;;;;24.92;44.47;98716.00;5071669;28;20036;-82
2022/08/21 18:17:18;;;;;;;3.15;2.03;;;;;;;24.89;44.31;98730.34;5057581;28;20028;-82
2022/08/21 18:19:44;;;;;;;3.17;2.35;;;;;;;24.79;44.52;98731.59;5070340;28;20035;-82
2022/08/21 18:22:10;;;;;;;3.33;2.05;;;;;;;24.54;44.83;98705.47;5051465;28;20115;-82
2022/08/21 18:24:35;;;;;;;3.60;2.10;;;;;;;24.66;44.92;98726.50;5067878;28;20025;-81
2022/08/21 18:27:02;;;;;;;4.15;2.53;;;;;;;24.51;44.85;98714.34;5053057;28;20036;-82
2022/08/21 18:29:28;;;;;;;2.50;2.00;;;;;;;24.31;45.36;98712.56;5091749;28;20036;-81
2022/08/21 18:31:54;;;;;;;3.67;2.40;;;;;;;24.26;45.61;98705.38;5043088;28;20126;-82
2022/08/21 18:34:24;;;;;;;3.30;1.95;;;;;;;24.33;45.63;98734.84;5069583;28;20427;-82
2022/08/21 18:36:51;;;;;;;2.72;1.65;;;;;;;24.37;45.61;98730.28;5076344;28;20024;-82
2022/08/21 18:39:17;;;;;;;3.53;1.92;;;;;;;24.13;45.83;98713.91;5069882;28;20055;-82
2022/08/21 18:41:45;;;;;;;4.43;2.25;;;;;;;24.19;45.68;98726.19;5055302;28;20491;-82
2022/08/21 18:44:13;;;;;;;2.95;1.92;;;;;;;24.19;45.97;98748.81;5052498;28;20021;-82
2022/08/21 18:46:39;;;;;;;2.70;2.10;;;;;;;23.87;46.38;98727.81;5066885;28;20037;-82
2022/08/21 18:49:05;;;;;;;2.20;2.00;;;;;;;23.90;46.34;98726.31;5065321;28;20034;-82
2022/08/21 18:51:30;;;;;;;3.60;2.13;;;;;;;23.94;46.15;98727.28;5055997;28;20032;-81
2022/08/21 18:53:55;;;;;;;2.25;1.75;;;;;;;23.81;46.52;98748.25;5084095;28;20029;-82
2022/08/21 18:56:21;;;;;;;2.30;1.95;;;;;;;23.86;46.71;98748.03;5056618;28;20032;-82
2022/08/21 18:58:46;;;;;;;1.73;1.63;;;;;;;23.87;46.74;98743.38;5073008;28;20032;-82
2022/08/21 19:01:12;;;;;;;2.78;2.28;;;;;;;23.69;46.97;98729.94;5040147;28;20024;-81
2022/08/21 19:03:37;;;;;;;3.85;2.47;;;;;;;23.71;46.64;98762.31;5081716;28;20205;-82
2022/08/21 19:06:03;;;;;;;3.58;2.53;;;;;;;23.67;46.73;98764.13;5070209;28;20032;-81
2022/08/21 19:08:29;;;;;;;7.30;3.00;;;;;;;23.59;46.98;98759.56;5053654;28;20507;-81
2022/08/21 19:10:57;;;;;;;3.60;2.92;;;;;;;23.60;47.33;98775.56;5069172;28;20032;-81
2022/08/21 19:13:23;;;;;;;5.22;2.58;;;;;;;23.40;46.84;98746.41;5070491;28;20031;-81
2022/08/21 19:15:54;;;;;;;4.38;2.80;;;;;;;23.56;47.35;98773.84;5062129;28;20039;-81
2022/08/21 19:18:23;;;;;;;3.38;2.40;;;;;;;23.33;47.73;98772.59;5064914;28;20120;-81
2022/08/21 19:20:50;;;;;;;2.85;2.45;;;;;;;23.27;47.68;98784.78;5073345;28;20523;-81
2022/08/21 19:23:16;;;;;;;2.92;2.45;;;;;;;23.24;47.87;98791.69;5069251;28;20037;-82
2022/08/21 19:25:45;;;;;;;6.90;4.05;;;;;;;22.78;48.82;98784.50;5049993;28;20098;-80
2022/08/21 19:28:16;;;;;;;7.63;3.60;;;;;;;22.92;48.79;98800.59;5064314;28;20032;-80
2022/08/21 19:31:10;;;;;;;5.32;3.05;;;;;;;22.34;50.53;98793.97;5068186;28;20024;-79
2022/08/21 19:33:39;;;;;;;3.80;2.83;;;;;;;21.49;52.15;98796.88;5061211;28;20061;-80
2022/08/21 19:36:07;;;;;;;3.03;2.72;;;;;;;21.16;52.38;98795.75;5063547;28;20025;-79
2022/08/21 19:38:33;;;;;;;5.28;2.72;;;;;;;22.00;51.11;98794.09;5057576;28;20033;-79
2022/08/21 19:41:00;;;;;;;4.28;2.88;;;;;;;22.32;49.79;98773.69;5053401;28;20017;-79
2022/08/21 19:43:26;;;;;;;4.60;2.60;;;;;;;22.70;49.37;98801.69;5067671;28;20107;-79
2022/08/21 19:45:57;;;;;;;4.05;2.28;;;;;;;22.59;49.38;98789.56;5070431;28;20019;-79
2022/08/21 19:48:23;;;;;;;3.70;2.30;;;;;;;21.87;51.81;98788.84;5065330;28;20025;-79
2022/08/21 19:50:49;;;;;;;4.43;2.72;;;;;;;21.70;51.40;98775.28;5062717;28;20028;-80
2022/08/21 19:53:16;;;;;;;2.78;2.40;;;;;;;22.48;49.81;98792.94;5068343;28;20431;-79
2022/08/21 19:55:44;;;;;;;5.05;2.58;;;;;;;22.56;49.40;98781.25;5052832;28;20056;-80
2022/08/21 19:58:40;;;;;;;4.22;2.40;;;;;;;22.52;49.67;98800.13;5056044;28;20036;-80
2022/08/21 20:01:08;;;;;;;3.88;2.50;;;;;;;22.56;49.45;98795.66;5049862;28;20068;-80
2022/08/21 20:03:33;;;;;;;3.03;2.22;;;;;;;22.39;49.64;98793.00;5058676;28;20036;-80
2022/08/21 20:05:59;;;;;;;5.90;2.40;;;;;;;21.40;52.42;98817.81;5032610;28;20043;-79
2022/08/21 20:08:24;;;;;;;11.32;2.90;;;;;;;21.83;50.92;98771.59;5053108;28;20603;-79
2022/08/21 20:10:50;;;;;;;4.35;2.90;;;;;;;22.26;50.16;98811.13;5065177;28;20027;-80
2022/08/21 20:13:20;;;;;;;4.93;2.60;;;;;;;22.36;50.11;98809.97;5050201;28;20182;-80
2022/08/21 20:15:47;;;;;;;3.42;2.55;;;;;;;22.27;50.40;98804.56;5059695;28;20088;-80
2022/08/21 20:18:13;;;;;;;4.00;2.63;;;;;;;22.12;50.42;98807.03;5041386;28;20059;-79
2022/08/21 20:20:39;;;;;;;2.72;2.30;;;;;;;22.15;50.75;98800.91;5061731;28;20078;-80
2022/08/21 20:23:04;;;;;;;3.55;2.65;;;;;;;22.18;50.20;98795.66;5046908;28;20444;-80
2022/08/21 20:25:34;;;;;;;4.30;2.53;;;;;;;22.25;50.32;98817.69;5047152;28;20045;-79
2022/08/21 20:28:00;;;;;;;3.67;2.75;;;;;;;22.11;50.54;98798.06;5061765;28;20032;-79
2022/08/21 20:30:27;;;;;;;3.47;2.40;;;;;;;22.04;50.79;98808.63;5054203;28;20021;-79
2022/08/21 20:32:52;;;;;;;3.95;2.47;;;;;;;21.99;50.81;98808.03;5061303;28;20029;-79
2022/08/21 20:35:18;;;;;;;3.88;2.40;;;;;;;21.89;50.77;98802.91;5062044;28;20376;-79
2022/08/21 20:37:44;;;;;;;5.97;2.35;;;;;;;21.95;50.50;98804.34;5060870;28;20193;-80
2022/08/21 20:40:12;;;;;;;3.92;2.25;;;;;;;21.89;51.04;98813.78;5052897;28;20047;-79
2022/08/21 20:42:40;;;;;;;4.30;2.53;;;;;;;21.84;50.99;98816.69;5065016;28;20039;-80
2022/08/21 20:45:06;;;;;;;3.92;2.38;;;;;;;21.72;50.96;98794.75;5066394;28;20103;-79
2022/08/21 20:47:32;;;;;;;4.82;2.10;;;;;;;21.88;50.92;98809.47;5044841;28;20032;-80
2022/08/21 20:50:01;;;;;;;2.80;2.30;;;;;;;21.70;51.45;98802.44;5069275;28;20040;-80
2022/08/21 20:52:32;;;;;;;3.88;2.13;;;;;;;21.67;51.26;98801.97;5072440;28;20041;-79
2022/08/21 20:55:06;;;;;;;3.30;2.50;;;;;;;21.68;51.35;98819.06;5063786;28;20948;-79
2022/08/21 20:57:54;;;;;;;5.03;2.58;;;;;;;21.67;51.50;98825.59;5057786;28;20052;-79
2022/08/21 21:00:24;;;;;;;2.58;2.25;;;;;;;21.55;51.73;98806.47;5063830;28;20397;-79
2022/08/21 21:03:12;;;;;;;4.38;2.65;;;;;;;21.60;51.64;98828.03;5064077;28;20036;-81
2022/08/21 21:06:03;;;;;;;2.60;2.30;;;;;;;21.52;51.98;98826.09;5073528;28;20032;-81
2022/08/21 21:08:55;;;;;;;2.72;2.42;;;;;;;21.63;51.59;98832.81;5056292;28;20072;-81
2022/08/21 21:11:44;;;;;;;4.13;2.90;;;;;;;21.37;51.68;98802.16;5050166;28;20087;-81
2022/08/21 21:14:24;;;;;;;2.97;2.40;;;;;;;21.29;52.59;98811.91;5057768;28;20945;-81
2022/08/21 21:16:58;;;;;;;2.88;2.20;;;;;;;21.37;52.28;98813.00;5064482;28;20567;-81
2022/08/21 21:19:37;;;;;;;4.65;2.60;;;;;;;21.49;52.04;98829.47;5046682;28;20032;-81
2022/08/21 21:22:13;;;;;;;5.80;3.25;;;;;;;21.56;52.04;98833.28;5060659;28;20043;-81
2022/08/21 21:25:02;;;;;;;5.05;2.60;;;;;;;21.54;51.98;98829.28;5060637;28;20546;-81
2022/08/21 21:27:43;;;;;;;2.75;2.50;;;;;;;21.45;52.18;98821.16;5055287;28;20532;-81
2022/08/21 21:30:34;;;;;;;4.68;2.78;;;;;;;21.53;51.98;98827.72;5080351;28;20091;-82
2022/08/21 21:33:00;;;;;;;2.85;2.53;;;;;;;21.58;52.11;98835.69;5063955;28;20032;-82
2022/08/21 21:35:39;;;;;;;3.30;2.53;;;;;;;21.47;52.25;98835.22;5051250;28;20036;-82
2022/08/21 21:38:07;;;;;;;4.03;2.10;;;;;;;21.44;52.64;98838.59;5074383;28;20106;-81
2022/08/21 21:40:50;;;;;;;4.20;2.47;;;;;;;21.55;52.13;98842.56;5063532;28;20025;-82
2022/08/21 21:43:28;;;;;;;3.83;2.40;;;;;;;21.51;52.21;98846.25;5064250;28;20024;-82
2022/08/21 21:46:15;;;;;;;2.92;2.20;;;;;;;21.45;52.52;98842.06;5062301;28;20384;-82
2022/08/21 21:48:58;;;;;;;6.13;2.63;;;;;;;21.36;52.58;98844.78;5064132;28;20385;-82
2022/08/21 21:51:26;;;;;;;3.88;2.15;;;;;;;21.40;52.69;98851.22;5062316;28;20016;-82
2022/08/21 21:54:17;;;;;;;4.32;2.33;;;;;;;21.21;52.75;98820.03;5063972;28;20377;-82
2022/08/21 21:57:11;;;;;;;5.35;2.03;;;;;;;21.16;52.88;98834.56;5067895;28;20038;-82
2022/08/21 21:59:58;;;;;;;6.53;2.13;;;;;;;21.26;52.80;98838.88;5074974;28;20031;-82
2022/08/21 22:02:42;;;;;;;4.10;2.55;;;;;;;21.14;53.21;98849.56;5070243;28;20480;-82
2022/08/21 22:05:54;;;;;;;3.55;2.33;;;;;;;21.09;53.15;98841.56;5067522;28;20024;-82
2022/08/21 22:08:28;;;;;;;5.05;2.78;;;;;;;21.09;53.08;98833.44;5021856;28;20053;-82
2022/08/21 22:11:15;;;;;;;3.30;2.45;;;;;;;21.11;53.24;98839.34;5005475;28;20036;-82
2022/08/21 22:14:04;;;;;;;4.35;2.78;;;;;;;20.95;53.31;98833.53;5052800;28;20079;-82
2022/08/21 22:16:31;;;;;;;5.68;2.92;;;;;;;20.93;53.34;98835.75;5060729;28;20424;-82
2022/08/21 22:19:09;;;;;;;9.95;2.75;;;;;;;20.89;53.45;98838.31;5061549;28;20029;-82
2022/08/21 22:21:38;;;;;;;3.22;2.67;;;;;;;20.86;53.50;98830.78;5069318;28;20520;-82
2022/08/21 22:24:21;;;;;;;4.90;2.60;;;;;;;20.88;53.36;98817.72;5062874;28;20032;-82
2022/08/21 22:26:55;;;;;;;5.07;2.65;;;;;;;20.87;53.63;98826.97;5051845;28;20451;-82
2022/08/21 22:29:22;;;;;;;5.05;2.45;;;;;;;20.88;53.62;98834.00;5065165;28;20032;-82
2022/08/21 22:32:06;;;;;;;5.50;2.05;;;;;;;20.78;53.91;98822.63;5065477;28;20099;-82
2022/08/21 22:34:32;;;;;;;4.63;2.05;;;;;;;20.76;53.76;98816.72;5055464;28;20033;-82
2022/08/21 22:37:04;;;;;;;3.35;1.98;;;;;;;20.68;54.12;98818.31;5057629;28;20411;-82
2022/08/21 22:39:40;;;;;;;2.20;2.00;;;;;;;20.61;53.93;98817.97;5037728;28;20348;-81
2022/08/21 22:42:26;;;;;;;;;;;;;;;20.68;54.21;98834.59;5063702;28;20033;-82
2022/08/21 22:44:58;;;;;;;3.15;2.20;;;;;;;20.75;53.99;98834.91;5064606;28;19958;-82
2022/08/21 22:47:37;;;;;;;5.10;2.10;;;;;;;20.60;54.02;98824.50;5057535;28;20025;-82
2022/08/21 22:50:25;;;;;;;3.35;2.10;;;;;;;20.55;54.43;98835.47;5060714;28;20603;-81
2022/08/21 22:52:55;;;;;;;5.05;2.47;;;;;;;20.46;54.80;98837.38;5044299;28;20075;-83
2022/08/21 22:55:37;;;;;;;3.65;2.10;;;;;;;20.48;54.73;98845.19;5065393;28;20025;-83
2022/08/21 22:58:19;;;;;;;5.07;2.35;;;;;;;20.51;54.60;98837.22;5065461;28;20025;-82
2022/08/21 23:01:15;;;;;;;3.65;2.42;;;;;;;20.44;54.82;98834.19;5083833;28;20063;-82
2022/08/21 23:03:46;;;;;;;2.85;2.00;;;;;;;20.39;54.36;98823.47;5059858;28;20028;-83
2022/08/21 23:06:20;;;;;;;2.95;2.33;;;;;;;20.32;55.00;98831.25;5062191;28;20032;-83
2022/08/21 23:08:46;;;;;;;2.90;2.00;;;;;;;20.28;54.95;98829.47;5064311;28;20139;-83
2022/08/21 23:11:25;;;;;;;4.70;2.25;;;;;;;20.31;54.76;98821.53;5057412;28;20021;-83
2022/08/21 23:13:52;;;;;;;6.78;2.40;;;;;;;20.24;55.20;98833.91;5057609;28;20036;-82
2022/08/21 23:16:39;;;;;;;3.70;2.08;;;;;;;20.19;55.18;98840.25;5064892;28;20028;-83
2022/08/21 23:19:17;;;;;;;3.25;2.30;;;;;;;20.15;55.13;98831.13;5063861;28;20028;-83
2022/08/21 23:21:54;;;;;;;3.38;2.67;;;;;;;20.27;55.13;98830.59;5058335;28;20028;-83
2022/08/21 23:24:35;;;;;;;5.28;1.92;;;;;;;20.16;54.96;98830.00;5063763;28;20036;-83
2022/08/21 23:27:25;;;;;;;5.25;3.15;;;;;;;20.21;55.17;98827.19;5060659;28;20033;-83
2022/08/21 23:30:03;;;;;;;3.35;2.30;;;;;;;20.10;55.05;98823.13;5055396;28;20459;-83
2022/08/21 23:33:07;;;;;;;3.35;1.70;;;;;;;19.90;55.47;98818.22;5065350;28;20028;-83
2022/08/21 23:38:22;;;;;;;4.35;1.90;;;;;;;20.12;55.30;98831.75;5062202;28;20395;-82
2022/08/21 23:40:55;;;;;;;3.47;2.58;;;;;;;19.92;55.40;98803.25;5077788;28;20021;-83
2022/08/21 23:43:47;;;;;;;4.97;2.85;;;;;;;19.99;55.68;98828.00;5061460;28;20028;-83